Time;durP1;ratioP1;P1;durP2;ratioP2;P2;SDS_P1;SDS_P2;PMS_P1;PMS_P2;Temp;Humidity;BMP_temperature;BMP_pressure;BME280_temperature;BME280_humidity;BME280_pressure;Samples;Min_cycle;Max_cycle;Signal;HPM_P1;HPM_P2
2023/05/28 00:00:00;;;;;;;;;;;9.30;53.90;;;;;;4145744;28;19975;-88
2023/05/28 00:02:21;;;;;;;;;;;9.20;53.70;;;;;;4142638;28;19980;-89
2023/05/28 00:04:42;;;;;;;;;;;9.30;53.80;;;;;;4146457;28;19972;-88
2023/05/28 00:07:03;;;;;;;;;;;9.30;53.50;;;;;;4143722;28;20294;-89
2023/05/28 00:09:24;;;;;;;;;;;9.20;53.70;;;;;;4143262;28;19953;-87
2023/05/28 00:11:45;;;;;;;;;;;9.20;53.90;;;;;;4145429;28;19913;-87
2023/05/28 00:14:06;;;;;;;;;;;9.20;54.00;;;;;;4141094;28;19991;-86
2023/05/28 00:16:27;;;;;;;;;;;9.20;54.90;;;;;;4147031;28;19932;-88
2023/05/28 00:18:48;;;;;;;;;;;9.30;54.30;;;;;;4142030;28;19921;-87
2023/05/28 00:21:08;;;;;;;;;;;9.20;54.40;;;;;;4143813;28;20438;-88
2023/05/28 00:23:29;;;;;;;;;;;9.20;54.50;;;;;;4146673;28;19921;-88
2023/05/28 00:25:51;;;;;;;;;;;9.20;54.30;;;;;;4142497;28;19981;-87
2023/05/28 00:28:12;;;;;;;;;;;9.10;54.30;;;;;;4140888;28;20790;-89
2023/05/28 00:30:33;;;;;;;;;;;9.10;54.80;;;;;;4139350;28;20458;-88
2023/05/28 00:32:53;;;;;;;;;;;9.20;55.00;;;;;;4143357;28;19975;-88
2023/05/28 00:35:14;;;;;;;;;;;9.10;54.90;;;;;;4141442;28;19924;-88
2023/05/28 00:37:35;;;;;;;;;;;9.10;55.20;;;;;;4133550;28;19918;-87
2023/05/28 00:39:56;;;;;;;;;;;9.10;55.30;;;;;;4142631;28;19925;-88
2023/05/28 00:42:17;;;;;;;;;;;9.20;55.20;;;;;;4144818;28;19972;-89
2023/05/28 00:44:39;;;;;;;;;;;9.10;55.20;;;;;;4142590;28;19921;-88
2023/05/28 00:47:00;;;;;;;;;;;9.10;55.00;;;;;;4139711;28;19917;-87
2023/05/28 00:49:22;;;;;;;;;;;9.10;55.10;;;;;;4141347;28;19921;-87
2023/05/28 00:51:43;;;;;;;;;;;9.20;55.40;;;;;;4137164;28;19917;-90
2023/05/28 00:54:04;;;;;;;;;;;9.20;55.80;;;;;;4140362;28;19991;-88
2023/05/28 00:56:26;;;;;;;;;;;9.10;55.80;;;;;;4136745;28;19922;-87
2023/05/28 00:58:48;;;;;;;;;;;9.20;55.80;;;;;;4140434;28;19942;-87
2023/05/28 01:01:09;;;;;;;;;;;9.20;55.80;;;;;;4142978;28;19924;-86
2023/05/28 01:03:32;;;;;;;;;;;9.20;55.50;;;;;;4139164;28;19964;-89
2023/05/28 01:05:53;;;;;;;;;;;9.20;55.60;;;;;;4139912;28;19918;-86
2023/05/28 01:08:14;;;;;;;;;;;9.20;55.30;;;;;;4143961;28;20479;-88
2023/05/28 01:10:35;;;;;;;;;;;9.20;55.70;;;;;;4141554;28;19918;-89
2023/05/28 01:12:57;;;;;;;;;;;9.20;56.00;;;;;;4138414;28;19932;-90
2023/05/28 01:15:18;;;;;;;;;;;9.20;56.10;;;;;;4140316;28;20399;-88
2023/05/28 01:17:39;;;;;;;;;;;9.20;56.20;;;;;;4142280;28;19952;-86
2023/05/28 01:20:05;;;;;;;;;;;9.20;56.30;;;;;;4139507;28;19937;-90
2023/05/28 01:22:28;;;;;;;;;;;9.20;56.30;;;;;;4140637;28;19917;-88
2023/05/28 01:24:51;;;;;;;;;;;9.30;56.30;;;;;;4139603;28;19937;-88
2023/05/28 01:27:15;;;;;;;;;;;9.20;56.40;;;;;;4142343;28;19968;-87
2023/05/28 01:29:36;;;;;;;;;;;9.20;56.40;;;;;;4137551;28;19917;-88
2023/05/28 01:31:57;;;;;;;;;;;9.30;56.30;;;;;;4142158;28;20457;-88
2023/05/28 01:34:18;;;;;;;;;;;9.30;56.50;;;;;;4137973;28;20320;-86
2023/05/28 01:36:50;;;;;;;;;;;9.30;56.80;;;;;;4139670;28;19918;-87
2023/05/28 01:39:15;;;;;;;;;;;9.30;56.60;;;;;;4141939;28;20426;-87
2023/05/28 01:41:36;;;;;;;;;;;9.30;56.70;;;;;;4139954;28;19922;-86
2023/05/28 01:43:58;;;;;;;;;;;9.30;56.70;;;;;;4141792;28;19960;-89
2023/05/28 01:46:20;;;;;;;;;;;9.30;57.20;;;;;;4138540;28;19948;-88
2023/05/28 01:48:41;;;;;;;;;;;9.30;56.50;;;;;;4142951;28;19984;-86
2023/05/28 01:51:02;;;;;;;;;;;9.20;56.50;;;;;;4140844;28;19917;-86
2023/05/28 01:53:23;;;;;;;;;;;9.30;56.40;;;;;;4139295;28;19914;-87
2023/05/28 01:55:44;;;;;;;;;;;9.30;56.50;;;;;;4141651;28;19966;-87
2023/05/28 01:58:05;;;;;;;;;;;9.30;56.70;;;;;;4143540;28;19996;-87
2023/05/28 02:00:26;;;;;;;;;;;9.40;56.80;;;;;;4138858;28;19917;-87
2023/05/28 02:02:47;;;;;;;;;;;9.20;56.50;;;;;;4136105;28;19914;-86
2023/05/28 02:05:08;;;;;;;;;;;9.30;56.40;;;;;;4140897;28;19914;-87
2023/05/28 02:07:29;;;;;;;;;;;9.40;56.90;;;;;;4139724;28;19948;-88
2023/05/28 02:09:50;;;;;;;;;;;9.40;57.90;;;;;;4140599;28;20808;-88
2023/05/28 02:12:11;;;;;;;;;;;9.30;57.00;;;;;;4140479;28;19971;-88
2023/05/28 02:14:32;;;;;;;;;;;9.30;57.10;;;;;;4134739;28;20407;-87
2023/05/28 02:16:53;;;;;;;;;;;9.20;56.90;;;;;;4142582;28;20383;-88
2023/05/28 02:19:14;;;;;;;;;;;9.20;57.30;;;;;;4140933;28;19943;-86
2023/05/28 02:21:36;;;;;;;;;;;9.30;57.90;;;;;;4141885;28;19914;-89
2023/05/28 02:23:56;;;;;;;;;;;9.30;57.70;;;;;;4142797;28;19961;-87
2023/05/28 02:26:20;;;;;;;;;;;9.30;57.90;;;;;;4145250;28;19913;-89
2023/05/28 02:28:44;;;;;;;;;;;9.30;58.20;;;;;;4146654;28;19924;-87
2023/05/28 02:31:05;;;;;;;;;;;9.40;58.30;;;;;;4143067;28;19953;-87
2023/05/28 02:33:26;;;;;;;;;;;9.30;59.10;;;;;;4143961;28;19929;-88
2023/05/28 02:35:47;;;;;;;;;;;9.30;58.80;;;;;;4146795;28;19921;-88
2023/05/28 02:38:08;;;;;;;;;;;9.30;58.90;;;;;;4142900;28;20322;-89
2023/05/28 02:40:29;;;;;;;;;;;9.30;59.70;;;;;;4141144;28;20364;-85
2023/05/28 02:42:49;;;;;;;;;;;9.30;59.10;;;;;;4145051;28;19944;-88
2023/05/28 02:45:10;;;;;;;;;;;9.30;59.20;;;;;;4140604;28;19968;-88
2023/05/28 02:47:31;;;;;;;;;;;9.40;59.30;;;;;;4142301;28;19917;-87
2023/05/28 02:49:52;;;;;;;;;;;9.40;59.40;;;;;;4144274;28;19926;-87
2023/05/28 02:52:13;;;;;;;;;;;9.30;59.00;;;;;;4141155;28;19925;-89
2023/05/28 02:54:34;;;;;;;;;;;9.40;59.30;;;;;;4143263;28;19926;-88
2023/05/28 02:56:55;;;;;;;;;;;9.40;59.50;;;;;;4143672;28;19945;-88
2023/05/28 02:59:16;;;;;;;;;;;9.40;59.60;;;;;;4143686;28;20023;-86
2023/05/28 03:01:36;;;;;;;;;;;9.40;59.50;;;;;;4143898;28;19972;-88
2023/05/28 03:03:57;;;;;;;;;;;9.40;59.40;;;;;;4144474;28;19913;-87
2023/05/28 03:06:18;;;;;;;;;;;9.40;59.10;;;;;;4142804;28;19920;-87
2023/05/28 03:08:39;;;;;;;;;;;9.40;59.20;;;;;;4143199;28;19913;-86
2023/05/28 03:11:00;;;;;;;;;;;9.40;59.10;;;;;;4145067;28;19925;-86
2023/05/28 03:13:20;;;;;;;;;;;9.40;59.20;;;;;;4142035;28;19961;-87
2023/05/28 03:15:42;;;;;;;;;;;9.40;59.40;;;;;;4149126;28;19922;-88
2023/05/28 03:18:03;;;;;;;;;;;9.40;59.10;;;;;;4139983;28;20352;-89
2023/05/28 03:20:24;;;;;;;;;;;9.40;59.00;;;;;;4141628;28;19960;-89
2023/05/28 03:22:45;;;;;;;;;;;9.50;59.00;;;;;;4141047;28;20008;-87
2023/05/28 03:25:07;;;;;;;;;;;9.40;59.20;;;;;;4140879;28;20048;-89
2023/05/28 03:27:28;;;;;;;;;;;9.40;59.10;;;;;;4155417;28;19913;-88
2023/05/28 03:29:49;;;;;;;;;;;9.40;58.80;;;;;;4148621;28;19957;-87
2023/05/28 03:32:10;;;;;;;;;;;9.40;59.10;;;;;;4140579;28;19937;-88
2023/05/28 03:34:31;;;;;;;;;;;9.40;58.90;;;;;;4139007;28;20411;-87
2023/05/28 03:36:52;;;;;;;;;;;9.40;59.40;;;;;;4143255;28;20304;-87
2023/05/28 03:39:13;;;;;;;;;;;9.40;59.30;;;;;;4139329;28;20672;-88
2023/05/28 03:41:34;;;;;;;;;;;9.40;59.10;;;;;;4140134;28;19913;-88
2023/05/28 03:43:55;;;;;;;;;;;9.40;59.00;;;;;;4138042;28;20272;-88
2023/05/28 03:46:16;;;;;;;;;;;9.50;59.50;;;;;;4140589;28;19972;-86
2023/05/28 03:48:36;;;;;;;;;;;9.40;59.60;;;;;;4142228;28;19992;-86
2023/05/28 03:50:57;;;;;;;;;;;9.50;60.10;;;;;;4151960;28;19921;-88
2023/05/28 03:53:18;;;;;;;;;;;9.40;59.90;;;;;;4138109;28;20011;-86
2023/05/28 03:55:39;;;;;;;;;;;9.40;60.00;;;;;;4142154;28;20019;-88
2023/05/28 03:58:00;;;;;;;;;;;9.40;60.60;;;;;;4145211;28;19988;-87
2023/05/28 04:00:21;;;;;;;;;;;9.40;60.80;;;;;;4139989;28;19918;-87
2023/05/28 04:02:41;;;;;;;;;;;9.40;60.90;;;;;;4141994;28;19925;-88
2023/05/28 04:05:02;;;;;;;;;;;9.50;61.10;;;;;;4142398;28;19927;-87
2023/05/28 04:07:23;;;;;;;;;;;9.50;61.00;;;;;;4140643;28;19929;-88
2023/05/28 04:09:44;;;;;;;;;;;9.50;61.10;;;;;;4139641;28;19940;-88
2023/05/28 04:12:06;;;;;;;;;;;9.50;60.80;;;;;;4138137;28;19975;-85
2023/05/28 04:14:27;;;;;;;;;;;9.50;61.00;;;;;;4141250;28;19977;-87
2023/05/28 04:16:48;;;;;;;;;;;9.50;60.90;;;;;;4139721;28;19948;-88
2023/05/28 04:19:09;;;;;;;;;;;9.60;60.60;;;;;;4143487;28;20454;-88
2023/05/28 04:21:30;;;;;;;;;;;9.60;60.70;;;;;;4142416;28;19964;-87
2023/05/28 04:23:51;;;;;;;;;;;9.60;60.60;;;;;;4139967;28;20181;-88
2023/05/28 04:26:12;;;;;;;;;;;9.50;60.70;;;;;;4140505;28;19925;-86
2023/05/28 04:28:33;;;;;;;;;;;9.50;60.50;;;;;;4138517;28;19921;-87
2023/05/28 04:30:55;;;;;;;;;;;9.50;60.70;;;;;;4139441;28;20035;-88
2023/05/28 04:33:20;;;;;;;;;;;9.50;60.80;;;;;;4135463;28;19914;-87
2023/05/28 04:35:41;;;;;;;;;;;9.50;60.90;;;;;;4140940;28;20015;-88
2023/05/28 04:38:02;;;;;;;;;;;9.50;60.50;;;;;;4138606;28;19917;-87
2023/05/28 04:40:24;;;;;;;;;;;9.50;60.90;;;;;;4139405;28;19961;-87
2023/05/28 04:42:44;;;;;;;;;;;9.50;61.00;;;;;;4152181;28;20011;-87
2023/05/28 04:45:10;;;;;;;;;;;9.60;61.20;;;;;;4142649;28;19913;-86
2023/05/28 04:47:31;;;;;;;;;;;9.50;61.00;;;;;;4137073;28;19913;-87
2023/05/28 04:49:52;;;;;;;;;;;9.50;61.60;;;;;;4140764;28;19914;-87
2023/05/28 04:52:35;;;;;;;;;;;9.50;62.10;;;;;;4174213;27;1906094;-87
2023/05/28 04:54:56;;;;;;;;;;;9.50;62.70;;;;;;4206013;28;19913;-88
2023/05/28 04:57:16;;;;;;;;;;;9.60;62.90;;;;;;4200881;28;19944;-88
2023/05/28 04:59:37;;;;;;;;;;;9.70;63.70;;;;;;4215090;28;19916;-87
2023/05/28 05:01:58;;;;;;;;;;;9.70;64.10;;;;;;4196099;28;20402;-87
2023/05/28 05:04:19;;;;;;;;;;;9.80;64.40;;;;;;4212952;28;20441;-88
2023/05/28 05:06:41;;;;;;;;;;;9.90;64.00;;;;;;4210921;28;20334;-86
2023/05/28 05:09:03;;;;;;;;;;;9.90;64.00;;;;;;4211924;28;19923;-86
2023/05/28 05:11:25;;;;;;;;;;;10.10;64.20;;;;;;4211445;28;19924;-87
2023/05/28 05:13:46;;;;;;;;;;;10.10;64.10;;;;;;4213105;28;19934;-87
2023/05/28 05:16:07;;;;;;;;;;;10.20;64.70;;;;;;4216086;28;20387;-85
2023/05/28 05:18:34;;;;;;;;;;;10.30;65.30;;;;;;4200101;28;19923;-87
2023/05/28 05:20:55;;;;;;;;;;;10.40;65.50;;;;;;4197025;28;19918;-88
2023/05/28 05:23:16;;;;;;;;;;;10.50;66.20;;;;;;4196167;28;20311;-87
2023/05/28 05:25:37;;;;;;;;;;;10.70;66.60;;;;;;4213862;28;19962;-86
2023/05/28 05:28:14;;;;;;;;;;;10.70;65.80;;;;;;4200615;28;20007;-87
2023/05/28 05:30:35;;;;;;;;;;;10.80;66.00;;;;;;4210004;28;19920;-87
2023/05/28 05:33:02;;;;;;;;;;;10.90;66.80;;;;;;4202311;28;20643;-87
2023/05/28 05:35:23;;;;;;;;;;;11.00;65.50;;;;;;4203284;28;19913;-86
2023/05/28 05:37:44;;;;;;;;;;;11.10;65.20;;;;;;4209842;28;21230;-89
2023/05/28 05:40:05;;;;;;;;;;;11.30;65.20;;;;;;4209436;28;19967;-86
2023/05/28 05:42:58;;;;;;;;;;;11.30;65.30;;;;;;4196020;28;19963;-86
2023/05/28 05:45:19;;;;;;;;;;;11.50;66.10;;;;;;4146082;28;19930;-89
2023/05/28 05:59:14;;;;;;;;;;;11.60;66.00;;;;;;4215718;27;19924;-88
2023/05/28 06:01:35;;;;;;;;;;;12.30;67.00;;;;;;4188054;27;19925;-88
2023/05/28 06:03:56;;;;;;;;;;;12.40;67.20;;;;;;4187111;28;20018;-88
2023/05/28 06:06:17;;;;;;;;;;;12.60;66.80;;;;;;4177486;28;19921;-87
2023/05/28 06:08:49;;;;;;;;;;;12.80;66.10;;;;;;4167871;28;20019;-89
2023/05/28 06:11:10;;;;;;;;;;;12.90;67.50;;;;;;4168813;28;19972;-87
2023/05/28 06:13:31;;;;;;;;;;;12.90;68.00;;;;;;4165712;28;19932;-88
2023/05/28 06:15:52;;;;;;;;;;;13.10;66.90;;;;;;4167704;28;19917;-88
2023/05/28 06:18:13;;;;;;;;;;;13.20;67.00;;;;;;4170822;28;20057;-89
2023/05/28 06:20:34;;;;;;;;;;;13.30;67.30;;;;;;4167453;28;20354;-88
2023/05/28 06:22:56;;;;;;;;;;;13.40;66.90;;;;;;4167824;28;20031;-87
2023/05/28 06:25:21;;;;;;;;;;;13.50;66.40;;;;;;4171200;28;19913;-86
2023/05/28 06:27:42;;;;;;;;;;;13.60;65.50;;;;;;4164134;28;19921;-89
2023/05/28 06:30:04;;;;;;;;;;;13.70;64.70;;;;;;4166215;28;19917;-86
2023/05/28 06:32:25;;;;;;;;;;;13.60;64.60;;;;;;4191390;28;20462;-88
2023/05/28 06:34:46;;;;;;;;;;;13.70;63.70;;;;;;4170839;28;19924;-87
2023/05/28 06:37:07;;;;;;;;;;;13.70;64.20;;;;;;4166918;28;21533;-87
2023/05/28 06:39:28;;;;;;;;;;;13.70;63.50;;;;;;4168792;28;19963;-86
2023/05/28 06:41:49;;;;;;;;;;;13.80;62.80;;;;;;4189331;28;20387;-87
2023/05/28 06:44:10;;;;;;;;;;;13.80;64.10;;;;;;4194429;28;20409;-88
2023/05/28 06:46:32;;;;;;;;;;;13.80;64.30;;;;;;4167832;28;20315;-88
2023/05/28 06:48:53;;;;;;;;;;;13.80;63.30;;;;;;4167044;28;19929;-88
2023/05/28 06:51:13;;;;;;;;;;;13.80;63.10;;;;;;4170444;28;20280;-88
2023/05/28 06:53:35;;;;;;;;;;;13.90;63.10;;;;;;4169145;28;19960;-88
2023/05/28 06:55:57;;;;;;;;;;;14.00;63.10;;;;;;4166779;28;19967;-87
2023/05/28 06:58:18;;;;;;;;;;;14.00;63.30;;;;;;4170694;28;19917;-88
2023/05/28 07:00:38;;;;;;;;;;;14.00;62.60;;;;;;4162846;28;19967;-87
2023/05/28 07:02:59;;;;;;;;;;;14.00;62.70;;;;;;4179166;28;19917;-91
2023/05/28 07:05:20;;;;;;;;;;;14.20;63.40;;;;;;4164115;28;20276;-90
2023/05/28 07:07:41;;;;;;;;;;;14.20;62.70;;;;;;4163949;28;19967;-88
2023/05/28 07:10:02;;;;;;;;;;;14.20;62.20;;;;;;4155954;28;20372;-88
2023/05/28 07:12:23;;;;;;;;;;;14.30;62.50;;;;;;4157822;28;19997;-87
2023/05/28 07:14:44;;;;;;;;;;;14.30;62.30;;;;;;4156954;28;19917;-88
2023/05/28 07:17:05;;;;;;;;;;;14.50;62.70;;;;;;4149932;28;19918;-87
2023/05/28 07:19:26;;;;;;;;;;;14.50;62.50;;;;;;4153994;28;19913;-87
2023/05/28 07:21:47;;;;;;;;;;;14.50;63.00;;;;;;4156843;28;19921;-88
2023/05/28 07:24:08;;;;;;;;;;;14.50;62.70;;;;;;4156620;28;19921;-88
2023/05/28 07:26:29;;;;;;;;;;;14.60;62.20;;;;;;4153129;28;19929;-88
2023/05/28 07:28:50;;;;;;;;;;;14.70;62.80;;;;;;4156572;28;19917;-88
2023/05/28 07:31:10;;;;;;;;;;;14.80;62.10;;;;;;4152869;28;21225;-88
2023/05/28 07:33:31;;;;;;;;;;;14.80;62.10;;;;;;4155052;28;19917;-86
2023/05/28 07:35:52;;;;;;;;;;;14.80;61.70;;;;;;4154996;28;20024;-88
2023/05/28 07:38:14;;;;;;;;;;;14.80;62.00;;;;;;4154772;28;20042;-88
2023/05/28 07:40:35;;;;;;;;;;;14.90;61.90;;;;;;4148096;28;19967;-88
2023/05/28 07:42:56;;;;;;;;;;;15.00;61.50;;;;;;4149412;28;19983;-87
2023/05/28 07:45:16;;;;;;;;;;;15.00;61.30;;;;;;4156523;28;19913;-89
2023/05/28 07:47:37;;;;;;;;;;;15.10;61.10;;;;;;4151899;28;19921;-86
2023/05/28 07:49:58;;;;;;;;;;;15.10;61.30;;;;;;4155085;28;19959;-88
2023/05/28 07:52:19;;;;;;;;;;;15.20;60.60;;;;;;4155357;28;19935;-86
2023/05/28 07:54:40;;;;;;;;;;;15.30;60.90;;;;;;4153091;28;19948;-88
2023/05/28 07:57:02;;;;;;;;;;;15.40;60.60;;;;;;4157335;28;19971;-89
2023/05/28 07:59:23;;;;;;;;;;;15.40;58.70;;;;;;4154668;28;19917;-87
2023/05/28 08:01:44;;;;;;;;;;;15.50;57.90;;;;;;4153778;28;19913;-88
2023/05/28 08:04:05;;;;;;;;;;;15.60;58.50;;;;;;4155709;28;19921;-85
2023/05/28 08:06:26;;;;;;;;;;;15.70;58.60;;;;;;4159178;28;19913;-86
2023/05/28 08:08:47;;;;;;;;;;;15.70;58.80;;;;;;4183045;28;19943;-87
2023/05/28 08:11:10;;;;;;;;;;;15.80;58.80;;;;;;4153426;28;19928;-88
2023/05/28 08:13:31;;;;;;;;;;;15.80;59.00;;;;;;4152425;28;19914;-88
2023/05/28 08:15:52;;;;;;;;;;;15.90;59.40;;;;;;4180753;28;19924;-87
2023/05/28 08:18:13;;;;;;;;;;;16.00;59.40;;;;;;4183278;28;19916;-88
2023/05/28 08:20:35;;;;;;;;;;;16.10;57.30;;;;;;4154648;28;20008;-88
2023/05/28 08:22:56;;;;;;;;;;;16.20;57.40;;;;;;4155238;28;19913;-86
2023/05/28 08:25:16;;;;;;;;;;;16.20;55.90;;;;;;4158070;28;19917;-87
2023/05/28 08:27:37;;;;;;;;;;;16.20;55.20;;;;;;4157428;28;20454;-87
2023/05/28 08:29:58;;;;;;;;;;;16.30;56.30;;;;;;4156405;28;19945;-88
2023/05/28 08:32:19;;;;;;;;;;;16.40;56.20;;;;;;4154637;28;20399;-87
2023/05/28 08:34:40;;;;;;;;;;;16.40;56.20;;;;;;4153796;28;20360;-85
2023/05/28 08:37:01;;;;;;;;;;;16.40;56.50;;;;;;4154520;28;20300;-87
2023/05/28 08:39:26;;;;;;;;;;;16.50;56.90;;;;;;4151627;28;19913;-87
2023/05/28 08:41:47;;;;;;;;;;;16.60;55.80;;;;;;4156568;28;19958;-87
2023/05/28 08:44:08;;;;;;;;;;;16.60;56.10;;;;;;4153330;28;19928;-86
2023/05/28 08:46:30;;;;;;;;;;;16.70;56.40;;;;;;4154287;28;20146;-87
2023/05/28 08:48:57;;;;;;;;;;;16.70;55.30;;;;;;4157408;28;19917;-87
2023/05/28 08:51:20;;;;;;;;;;;16.80;55.90;;;;;;4149602;28;19924;-88
2023/05/28 08:53:47;;;;;;;;;;;16.80;55.20;;;;;;4144374;28;20381;-86
2023/05/28 08:56:09;;;;;;;;;;;16.90;55.70;;;;;;4157174;28;19917;-90
2023/05/28 08:58:30;;;;;;;;;;;16.90;56.00;;;;;;4155235;28;19925;-86
2023/05/28 09:00:51;;;;;;;;;;;17.00;54.80;;;;;;4157441;28;19976;-87
2023/05/28 09:03:15;;;;;;;;;;;17.00;54.20;;;;;;4160129;28;19917;-90
2023/05/28 09:05:37;;;;;;;;;;;17.10;54.10;;;;;;4158912;28;19913;-88
2023/05/28 09:07:58;;;;;;;;;;;17.20;55.00;;;;;;4160909;28;19921;-88
2023/05/28 09:10:21;;;;;;;;;;;17.20;55.10;;;;;;4153837;28;19941;-87
2023/05/28 09:12:56;;;;;;;;;;;17.30;55.10;;;;;;4155067;28;19944;-87
2023/05/28 09:15:21;;;;;;;;;;;17.30;53.00;;;;;;4155883;28;19936;-87
2023/05/28 09:17:42;;;;;;;;;;;17.40;52.90;;;;;;4158871;28;19917;-89
2023/05/28 09:20:10;;;;;;;;;;;17.40;53.50;;;;;;4153249;28;20163;-89
2023/05/28 09:22:31;;;;;;;;;;;17.40;52.90;;;;;;4153236;28;19928;-89
2023/05/28 09:24:54;;;;;;;;;;;17.50;53.70;;;;;;4153249;28;21410;-88
2023/05/28 09:27:19;;;;;;;;;;;17.50;54.10;;;;;;4153111;28;19927;-87
2023/05/28 09:29:40;;;;;;;;;;;17.50;53.20;;;;;;4156428;28;20015;-86
2023/05/28 09:32:01;;;;;;;;;;;17.50;53.20;;;;;;4149901;28;19917;-88
2023/05/28 09:34:29;;;;;;;;;;;17.50;53.60;;;;;;4157752;28;20419;-88
2023/05/28 09:36:51;;;;;;;;;;;17.50;53.70;;;;;;4154565;28;19917;-88
2023/05/28 09:39:12;;;;;;;;;;;17.40;53.30;;;;;;4154710;28;19917;-88
2023/05/28 09:41:34;;;;;;;;;;;17.40;54.20;;;;;;4156971;28;19922;-88
2023/05/28 09:43:56;;;;;;;;;;;17.50;54.50;;;;;;4160786;28;19928;-87
2023/05/28 09:46:17;;;;;;;;;;;17.50;54.80;;;;;;4159908;28;19917;-89
2023/05/28 09:48:38;;;;;;;;;;;17.60;54.70;;;;;;4153330;28;19971;-89
2023/05/28 09:51:01;;;;;;;;;;;17.60;55.40;;;;;;4159504;28;19979;-91
2023/05/28 09:53:23;;;;;;;;;;;17.70;54.00;;;;;;4154908;28;19921;-87
2023/05/28 09:55:44;;;;;;;;;;;17.80;54.00;;;;;;4152409;28;19913;-86
2023/05/28 09:58:06;;;;;;;;;;;17.80;53.90;;;;;;4149437;28;19928;-89
2023/05/28 10:00:31;;;;;;;;;;;17.90;53.70;;;;;;4152173;28;19921;-88
2023/05/28 10:02:59;;;;;;;;;;;17.90;53.80;;;;;;4150939;28;20060;-89
2023/05/28 10:05:21;;;;;;;;;;;18.00;53.60;;;;;;4148002;28;19975;-88
2023/05/28 10:07:44;;;;;;;;;;;18.10;53.90;;;;;;4150034;28;19964;-89
2023/05/28 10:10:06;;;;;;;;;;;18.20;54.00;;;;;;4146689;28;20322;-87
2023/05/28 10:12:28;;;;;;;;;;;18.20;52.80;;;;;;4148565;28;20013;-88
2023/05/28 10:14:50;;;;;;;;;;;18.20;51.80;;;;;;4144653;28;19925;-90
2023/05/28 10:17:10;;;;;;;;;;;18.20;51.70;;;;;;4145346;28;19942;-86
2023/05/28 10:19:33;;;;;;;;;;;18.30;52.30;;;;;;4147174;28;19996;-89
2023/05/28 10:21:55;;;;;;;;;;;18.20;52.60;;;;;;4143618;28;19921;-89
2023/05/28 10:24:16;;;;;;;;;;;18.30;52.80;;;;;;4150114;28;19917;-86
2023/05/28 10:26:38;;;;;;;;;;;18.30;52.80;;;;;;4157309;28;19952;-88
2023/05/28 10:28:58;;;;;;;;;;;18.30;52.50;;;;;;4152761;28;19921;-88
2023/05/28 10:31:20;;;;;;;;;;;18.30;52.00;;;;;;4152542;28;20021;-88
2023/05/28 10:33:42;;;;;;;;;;;18.30;51.60;;;;;;4154031;28;20063;-88
2023/05/28 10:36:03;;;;;;;;;;;18.30;51.20;;;;;;4156372;28;20361;-88
2023/05/28 10:38:25;;;;;;;;;;;18.30;51.60;;;;;;4158901;28;19960;-87
2023/05/28 10:40:45;;;;;;;;;;;18.30;52.00;;;;;;4159124;28;19913;-88
2023/05/28 10:43:26;;;;;;;;;;;18.30;51.80;;;;;;4161203;28;19913;-86
2023/05/28 10:45:47;;;;;;;;;;;18.40;51.40;;;;;;4171010;28;19956;-88
2023/05/28 10:48:14;;;;;;;;;;;18.50;51.90;;;;;;4174272;28;19935;-87
2023/05/28 10:50:55;;;;;;;;;;;18.50;51.60;;;;;;4180753;28;19924;-91
2023/05/28 10:53:17;;;;;;;;;;;18.60;51.00;;;;;;4178525;28;19957;-91
2023/05/28 10:55:48;;;;;;;;;;;18.60;50.90;;;;;;4177420;28;19905;-90
2023/05/28 10:58:11;;;;;;;;;;;18.60;51.20;;;;;;4176655;28;19917;-91
2023/05/28 11:00:39;;;;;;;;;;;18.70;51.40;;;;;;4163706;28;19917;-86
2023/05/28 11:03:00;;;;;;;;;;;18.70;50.70;;;;;;4153257;28;19917;-87
2023/05/28 11:05:25;;;;;;;;;;;18.70;50.80;;;;;;4155753;28;19925;-88
2023/05/28 11:07:46;;;;;;;;;;;18.70;50.40;;;;;;4153926;28;19925;-89
2023/05/28 11:10:08;;;;;;;;;;;18.80;50.80;;;;;;4155525;28;19913;-89
2023/05/28 11:12:30;;;;;;;;;;;18.80;51.10;;;;;;4155061;28;20419;-91
2023/05/28 11:14:50;;;;;;;;;;;18.90;50.70;;;;;;4175665;28;19921;-89
2023/05/28 11:17:12;;;;;;;;;;;18.90;50.40;;;;;;4157284;28;19924;-88
2023/05/28 11:19:38;;;;;;;;;;;18.90;49.90;;;;;;4156639;28;20362;-88
2023/05/28 11:22:00;;;;;;;;;;;19.00;50.20;;;;;;4150432;28;19999;-89
2023/05/28 11:24:21;;;;;;;;;;;19.00;49.30;;;;;;4150864;28;19991;-89
2023/05/28 11:26:42;;;;;;;;;;;19.00;48.80;;;;;;4155951;28;20020;-87
2023/05/28 11:29:03;;;;;;;;;;;18.90;49.70;;;;;;4152479;28;20036;-88
2023/05/28 11:31:23;;;;;;;;;;;19.00;49.70;;;;;;4152264;28;20476;-87
2023/05/28 11:33:48;;;;;;;;;;;19.00;49.50;;;;;;4179057;28;20478;-89
2023/05/28 11:36:13;;;;;;;;;;;19.10;49.70;;;;;;4154524;28;19913;-89
2023/05/28 11:38:34;;;;;;;;;;;19.10;49.20;;;;;;4156920;28;20399;-89
2023/05/28 11:40:58;;;;;;;;;;;19.10;49.40;;;;;;4154221;28;19988;-89
2023/05/28 11:43:23;;;;;;;;;;;19.20;49.20;;;;;;4152354;28;20580;-88
2023/05/28 11:45:44;;;;;;;;;;;19.20;49.10;;;;;;4155546;28;20320;-89
2023/05/28 11:48:10;;;;;;;;;;;19.20;49.30;;;;;;4159991;28;20388;-89
2023/05/28 11:50:31;;;;;;;;;;;19.30;48.90;;;;;;4150776;28;20059;-87
2023/05/28 11:52:54;;;;;;;;;;;19.30;48.30;;;;;;4148339;28;20020;-89
2023/05/28 11:55:15;;;;;;;;;;;19.30;48.30;;;;;;4145111;28;19928;-88
2023/05/28 11:57:38;;;;;;;;;;;19.30;48.30;;;;;;4154687;28;19999;-87
2023/05/28 12:00:15;;;;;;;;;;;19.30;48.80;;;;;;4147579;28;19918;-88
2023/05/28 12:02:43;;;;;;;;;;;19.30;48.60;;;;;;4157636;28;19920;-89
2023/05/28 12:05:04;;;;;;;;;;;19.30;48.40;;;;;;4150145;28;20511;-86
2023/05/28 12:07:45;;;;;;;;;;;19.20;47.40;;;;;;4151587;28;20304;-86
2023/05/28 12:10:08;;;;;;;;;;;19.30;48.00;;;;;;4148235;28;19914;-88
2023/05/28 12:12:31;;;;;;;;;;;19.20;47.80;;;;;;4154409;28;19918;-89
2023/05/28 12:14:51;;;;;;;;;;;19.20;48.50;;;;;;4155020;28;19917;-88
2023/05/28 12:17:13;;;;;;;;;;;19.30;48.40;;;;;;4155255;28;19922;-89
2023/05/28 12:19:37;;;;;;;;;;;19.20;48.00;;;;;;4157470;28;19917;-89
2023/05/28 12:21:58;;;;;;;;;;;19.30;48.60;;;;;;4160666;28;20430;-89
2023/05/28 12:24:18;;;;;;;;;;;19.30;48.80;;;;;;4152385;28;20060;-87
2023/05/28 12:26:40;;;;;;;;;;;19.30;48.40;;;;;;4154139;28;19921;-88
2023/05/28 12:29:03;;;;;;;;;;;19.30;48.30;;;;;;4159867;28;21035;-89
2023/05/28 12:31:28;;;;;;;;;;;19.30;48.20;;;;;;4170917;28;19993;-87
2023/05/28 12:33:49;;;;;;;;;;;19.30;48.10;;;;;;4143769;28;19944;-88
2023/05/28 12:36:18;;;;;;;;;;;19.30;47.70;;;;;;4148166;28;19992;-86
2023/05/28 12:38:46;;;;;;;;;;;19.30;47.10;;;;;;4142839;28;20623;-87
2023/05/28 12:41:07;;;;;;;;;;;19.30;47.80;;;;;;4143094;28;19917;-89
2023/05/28 12:43:28;;;;;;;;;;;19.30;47.10;;;;;;4149621;28;19928;-85
2023/05/28 12:45:49;;;;;;;;;;;19.30;47.30;;;;;;4153765;28;19913;-88
2023/05/28 12:48:10;;;;;;;;;;;19.40;47.30;;;;;;4153925;28;19917;-87
2023/05/28 12:50:31;;;;;;;;;;;19.30;47.40;;;;;;4150107;28;19974;-87
2023/05/28 12:52:52;;;;;;;;;;;19.30;48.10;;;;;;4155498;28;19918;-88
2023/05/28 12:55:13;;;;;;;;;;;19.30;47.30;;;;;;4154638;28;20031;-87
2023/05/28 12:57:35;;;;;;;;;;;19.20;46.60;;;;;;4151362;28;19921;-88
2023/05/28 12:59:56;;;;;;;;;;;19.30;47.10;;;;;;4149720;28;19957;-86
2023/05/28 13:02:17;;;;;;;;;;;19.20;46.80;;;;;;4153105;28;19917;-89
2023/05/28 13:04:38;;;;;;;;;;;19.20;47.70;;;;;;4154151;28;21184;-87
2023/05/28 13:09:13;;;;;;;;;;;19.30;48.10;;;;;;3937761;26;19949;-89
2023/05/28 13:11:38;;;;;;;;;;;19.40;48.10;;;;;;4131088;28;19960;-87
2023/05/28 13:13:59;;;;;;;;;;;19.40;47.90;;;;;;4111751;28;20537;-86
2023/05/28 13:16:19;;;;;;;;;;;19.40;47.90;;;;;;4120061;28;19914;-88
2023/05/28 13:18:42;;;;;;;;;;;19.40;48.00;;;;;;4124458;28;20727;-90
2023/05/28 13:21:03;;;;;;;;;;;19.50;47.80;;;;;;4122877;28;19944;-87
2023/05/28 13:23:27;;;;;;;;;;;19.50;46.20;;;;;;4126274;28;19924;-88
2023/05/28 13:25:48;;;;;;;;;;;19.50;46.80;;;;;;4117525;28;20301;-88
2023/05/28 13:28:12;;;;;;;;;;;19.50;45.70;;;;;;4121251;28;19925;-89
2023/05/28 13:30:41;;;;;;;;;;;19.50;46.30;;;;;;4128144;28;19926;-87
2023/05/28 13:33:14;;;;;;;;;;;19.40;47.00;;;;;;4123560;28;19918;-89
2023/05/28 13:35:51;;;;;;;;;;;19.50;47.40;;;;;;4125621;28;19918;-87
2023/05/28 13:38:31;;;;;;;;;;;19.40;47.10;;;;;;4126009;28;19924;-88
2023/05/28 13:40:52;;;;;;;;;;;19.40;47.50;;;;;;4125111;28;20000;-90
2023/05/28 13:43:39;;;;;;;;;;;19.30;47.80;;;;;;4129669;28;19922;-86
2023/05/28 13:46:02;;;;;;;;;;;19.30;47.60;;;;;;4122000;28;19928;-87
2023/05/28 13:48:26;;;;;;;;;;;19.30;47.10;;;;;;4129569;28;19933;-87
2023/05/28 13:50:47;;;;;;;;;;;19.40;47.60;;;;;;4121004;28;19917;-86
2023/05/28 13:53:07;;;;;;;;;;;19.30;46.80;;;;;;4123329;28;20074;-86
2023/05/28 13:55:28;;;;;;;;;;;19.30;47.10;;;;;;4124811;28;19918;-86
2023/05/28 13:57:49;;;;;;;;;;;19.30;47.20;;;;;;4129813;28;19926;-88
2023/05/28 14:00:11;;;;;;;;;;;19.30;47.50;;;;;;4124761;28;19940;-89
2023/05/28 14:02:44;;;;;;;;;;;19.30;47.00;;;;;;4124807;28;19922;-87
2023/05/28 14:05:05;;;;;;;;;;;19.20;47.00;;;;;;4128423;28;19940;-88